createdAt,value
2017-06-30T00:00:54.271Z,0
2017-06-30T00:02:03.214Z,0
2017-06-30T00:03:12.218Z,0
2017-06-30T00:04:21.446Z,0
2017-06-30T00:05:30.487Z,0
2017-06-30T00:06:39.517Z,0
2017-06-30T00:07:48.512Z,0
2017-06-30T00:08:57.573Z,0
2017-06-30T00:10:06.971Z,0
2017-06-30T00:11:16.018Z,0
2017-06-30T00:12:24.964Z,0
2017-06-30T00:13:34.066Z,0
2017-06-30T00:14:43.097Z,0
2017-06-30T00:15:52.399Z,0
2017-06-30T00:17:01.461Z,0
2017-06-30T00:18:10.645Z,0
2017-06-30T00:19:19.628Z,0
2017-06-30T00:20:28.707Z,0
2017-06-30T00:21:37.902Z,0
2017-06-30T00:22:47.209Z,0
2017-06-30T00:23:56.196Z,0
2017-06-30T00:25:05.173Z,0
2017-06-30T00:26:14.132Z,0
2017-06-30T00:27:23.468Z,0
2017-06-30T00:28:32.581Z,0
2017-06-30T00:29:41.918Z,0
2017-06-30T00:30:51.279Z,0
2017-06-30T00:32:00.515Z,0
2017-06-30T00:33:09.921Z,0
2017-06-30T00:34:18.937Z,0
2017-06-30T00:35:27.892Z,0
2017-06-30T00:36:37.001Z,0
2017-06-30T00:37:45.948Z,0
2017-06-30T00:38:55.245Z,0
2017-06-30T00:40:04.207Z,0
2017-06-30T00:41:13.168Z,0
2017-06-30T00:42:22.394Z,0
2017-06-30T00:43:31.574Z,0
2017-06-30T00:44:40.912Z,0
2017-06-30T00:45:50.129Z,0
2017-06-30T00:46:59.076Z,0
2017-06-30T00:48:08.206Z,0
2017-06-30T00:49:17.298Z,0
2017-06-30T00:50:26.590Z,0
2017-06-30T00:51:35.766Z,0
2017-06-30T00:52:44.746Z,0
2017-06-30T00:53:53.801Z,0
2017-06-30T00:55:02.842Z,0
2017-06-30T00:56:12.460Z,0
2017-06-30T00:57:21.418Z,0
2017-06-30T00:58:30.362Z,0
2017-06-30T00:59:39.379Z,0
2017-06-30T01:00:48.702Z,0
2017-06-30T01:01:57.900Z,0
2017-06-30T01:03:07.188Z,0
2017-06-30T01:04:16.203Z,0
2017-06-30T01:05:25.425Z,0
2017-06-30T01:06:34.415Z,0
2017-06-30T01:07:43.691Z,0
2017-06-30T01:08:52.967Z,0
2017-06-30T01:10:01.998Z,0
2017-06-30T01:11:11.284Z,0
2017-06-30T01:12:20.387Z,0
2017-06-30T01:13:29.615Z,0
2017-06-30T01:14:38.838Z,0
2017-06-30T01:15:48.131Z,0
2017-06-30T01:16:57.233Z,0
2017-06-30T01:18:06.523Z,0
2017-06-30T01:19:15.982Z,0
2017-06-30T01:20:25.081Z,0
2017-06-30T01:21:34.443Z,0
2017-06-30T01:22:43.619Z,0
2017-06-30T01:23:52.972Z,0
2017-06-30T01:25:02.167Z,0
2017-06-30T01:26:11.310Z,0
2017-06-30T01:27:20.467Z,0
2017-06-30T01:28:29.603Z,0
2017-06-30T01:29:38.545Z,0
2017-06-30T01:30:47.894Z,0
2017-06-30T01:31:56.929Z,0
2017-06-30T01:33:05.869Z,0
2017-06-30T01:34:14.919Z,0
2017-06-30T01:35:23.872Z,0
2017-06-30T01:36:33.069Z,0
2017-06-30T01:37:42.131Z,0
2017-06-30T01:38:51.083Z,0
2017-06-30T01:40:00.063Z,0
2017-06-30T01:41:09.392Z,0
2017-06-30T01:42:18.591Z,0
2017-06-30T01:43:27.639Z,0
2017-06-30T01:44:36.584Z,0
2017-06-30T01:45:45.564Z,0
2017-06-30T01:46:54.508Z,0
2017-06-30T01:48:04.014Z,0
2017-06-30T01:49:13.282Z,0
2017-06-30T01:50:22.399Z,0
2017-06-30T01:51:31.352Z,0
2017-06-30T01:52:40.398Z,0
2017-06-30T01:53:49.694Z,0
2017-06-30T01:54:58.643Z,0
2017-06-30T01:56:07.591Z,0
2017-06-30T01:57:16.563Z,0
2017-06-30T01:58:25.506Z,0
2017-06-30T01:59:34.698Z,0
2017-06-30T02:00:43.970Z,0
2017-06-30T02:01:52.923Z,0
2017-06-30T02:03:01.866Z,0
2017-06-30T02:04:11.162Z,0
2017-06-30T02:05:20.479Z,0
2017-06-30T02:06:29.419Z,0
2017-06-30T02:07:38.358Z,0
2017-06-30T02:08:47.314Z,0
2017-06-30T02:09:56.253Z,0
2017-06-30T02:11:05.438Z,0
2017-06-30T02:12:14.383Z,0
2017-06-30T02:13:23.340Z,0
2017-06-30T02:14:32.275Z,0
2017-06-30T02:15:41.223Z,0
2017-06-30T02:16:50.508Z,0
2017-06-30T02:17:59.449Z,0
2017-06-30T02:19:08.731Z,0
2017-06-30T02:20:17.693Z,0
2017-06-30T02:21:26.638Z,0
2017-06-30T02:22:35.911Z,0
2017-06-30T02:23:44.856Z,0
2017-06-30T02:24:53.791Z,0
2017-06-30T02:26:02.819Z,0
2017-06-30T02:27:11.767Z,0
2017-06-30T02:28:20.973Z,4
2017-06-30T02:29:29.917Z,4
2017-06-30T02:30:38.856Z,4
2017-06-30T02:31:47.816Z,0
2017-06-30T02:32:56.757Z,0
2017-06-30T02:34:06.044Z,4
2017-06-30T02:35:15.026Z,4
2017-06-30T02:36:23.972Z,4
2017-06-30T02:37:32.925Z,4
2017-06-30T02:38:41.872Z,0
2017-06-30T02:39:51.061Z,4
2017-06-30T02:41:00.007Z,4
2017-06-30T02:42:08.961Z,4
2017-06-30T02:43:17.921Z,8
2017-06-30T02:44:26.860Z,8
2017-06-30T02:45:36.046Z,4
2017-06-30T02:46:45.032Z,8
2017-06-30T02:47:53.977Z,4
2017-06-30T02:49:02.942Z,8
2017-06-30T02:50:11.889Z,8
2017-06-30T02:51:21.087Z,8
2017-06-30T02:52:30.030Z,12
2017-06-30T02:53:38.969Z,8
2017-06-30T02:54:47.916Z,12
2017-06-30T02:55:56.986Z,12
2017-06-30T02:57:06.543Z,8
2017-06-30T02:58:15.490Z,8
2017-06-30T02:59:24.531Z,8
2017-06-30T03:00:33.495Z,16
2017-06-30T03:01:42.437Z,20
2017-06-30T03:02:51.627Z,24
2017-06-30T03:04:00.569Z,40
2017-06-30T03:05:09.506Z,40
2017-06-30T03:06:18.452Z,48
2017-06-30T03:07:27.401Z,48
2017-06-30T03:08:36.598Z,52
2017-06-30T03:09:45.575Z,40
2017-06-30T03:10:54.537Z,48
2017-06-30T03:12:03.485Z,28
2017-06-30T03:13:12.429Z,16
2017-06-30T03:14:21.666Z,20
2017-06-30T03:15:30.614Z,24
2017-06-30T03:16:39.561Z,28
2017-06-30T03:17:48.510Z,44
2017-06-30T03:18:57.443Z,32
2017-06-30T03:20:06.649Z,36
2017-06-30T03:21:15.592Z,44
2017-06-30T03:22:24.530Z,40
2017-06-30T03:23:33.477Z,52
2017-06-30T03:24:42.421Z,52
2017-06-30T03:25:51.612Z,68
2017-06-30T03:27:00.558Z,68
2017-06-30T03:28:09.508Z,76
2017-06-30T03:29:18.447Z,64
2017-06-30T03:30:27.392Z,60
2017-06-30T03:31:36.597Z,84
2017-06-30T03:32:45.532Z,84
2017-06-30T03:33:54.490Z,92
2017-06-30T03:35:03.446Z,96
2017-06-30T03:36:12.396Z,116
2017-06-30T03:37:21.598Z,108
2017-06-30T03:38:30.545Z,128
2017-06-30T03:39:39.489Z,112
2017-06-30T03:40:48.440Z,104
2017-06-30T03:41:57.385Z,124
2017-06-30T03:43:06.720Z,112
2017-06-30T03:44:15.667Z,100
2017-06-30T03:45:24.611Z,88
2017-06-30T03:46:33.635Z,124
2017-06-30T03:47:42.670Z,100
2017-06-30T03:48:51.941Z,108
2017-06-30T03:50:00.901Z,108
2017-06-30T03:51:09.841Z,124
2017-06-30T03:52:18.791Z,112
2017-06-30T03:53:27.831Z,112
2017-06-30T03:54:37.078Z,84
2017-06-30T03:55:46.038Z,144
2017-06-30T03:56:55.299Z,116
2017-06-30T03:58:04.253Z,132
2017-06-30T03:59:13.521Z,144
2017-06-30T04:00:22.902Z,132
2017-06-30T04:01:31.844Z,132
2017-06-30T04:02:40.877Z,192
2017-06-30T04:03:49.824Z,172
2017-06-30T04:04:58.851Z,180
2017-06-30T04:06:08.045Z,160
2017-06-30T04:07:16.981Z,140
2017-06-30T04:08:25.923Z,160
2017-06-30T04:09:34.866Z,160
2017-06-30T04:10:44.134Z,172
2017-06-30T04:11:53.443Z,172
2017-06-30T04:13:02.395Z,212
2017-06-30T04:14:11.342Z,192
2017-06-30T04:15:20.325Z,208
2017-06-30T04:16:29.274Z,188
2017-06-30T04:17:38.466Z,224
2017-06-30T04:18:47.421Z,272
2017-06-30T04:19:56.451Z,200
2017-06-30T04:21:05.400Z,220
2017-06-30T04:22:14.347Z,316
2017-06-30T04:23:23.870Z,288
2017-06-30T04:24:32.808Z,284
2017-06-30T04:25:41.755Z,252
2017-06-30T04:26:50.714Z,292
2017-06-30T04:27:59.660Z,324
2017-06-30T04:29:08.852Z,236
2017-06-30T04:30:17.816Z,292
2017-06-30T04:31:26.873Z,320
2017-06-30T04:32:35.822Z,240
2017-06-30T04:33:44.760Z,212
2017-06-30T04:34:54.001Z,308
2017-06-30T04:36:02.957Z,280
2017-06-30T04:37:11.906Z,228
2017-06-30T04:38:20.853Z,316
2017-06-30T04:39:29.797Z,244
2017-06-30T04:40:38.987Z,244
2017-06-30T04:41:47.938Z,260
2017-06-30T04:42:56.885Z,236
2017-06-30T04:44:05.823Z,272
2017-06-30T04:45:14.772Z,208
2017-06-30T04:46:24.054Z,216
2017-06-30T04:47:33.005Z,152
2017-06-30T04:48:41.946Z,184
2017-06-30T04:49:50.898Z,224
2017-06-30T04:50:59.847Z,164
2017-06-30T04:52:09.091Z,264
2017-06-30T04:53:18.036Z,292
2017-06-30T04:54:26.993Z,212
2017-06-30T04:55:35.938Z,156
2017-06-30T04:56:44.963Z,200
2017-06-30T04:57:54.151Z,172
2017-06-30T04:59:03.097Z,148
2017-06-30T05:00:12.036Z,200
2017-06-30T05:01:20.982Z,208
2017-06-30T05:02:29.929Z,212
2017-06-30T05:03:39.445Z,260
2017-06-30T05:04:48.397Z,184
2017-06-30T05:05:57.351Z,236
2017-06-30T05:07:06.302Z,224
2017-06-30T05:08:15.251Z,248
2017-06-30T05:09:24.538Z,196
2017-06-30T05:10:33.481Z,244
2017-06-30T05:11:42.419Z,236
2017-06-30T05:12:51.371Z,304
2017-06-30T05:14:00.423Z,204
2017-06-30T05:15:09.623Z,312
2017-06-30T05:16:18.648Z,248
2017-06-30T05:17:27.593Z,256
2017-06-30T05:18:36.879Z,248
2017-06-30T05:19:46.471Z,236
2017-06-30T05:20:55.767Z,288
2017-06-30T05:22:04.714Z,232
2017-06-30T05:23:13.662Z,180
2017-06-30T05:24:22.604Z,248
2017-06-30T05:25:31.544Z,260
2017-06-30T05:26:40.797Z,364
2017-06-30T05:27:49.772Z,212
2017-06-30T05:28:58.807Z,212
2017-06-30T05:30:07.751Z,192
2017-06-30T05:31:16.703Z,280
2017-06-30T05:32:25.913Z,272
2017-06-30T05:33:34.859Z,216
2017-06-30T05:34:43.894Z,188
2017-06-30T05:35:52.829Z,212
2017-06-30T05:37:01.818Z,208
2017-06-30T05:38:11.028Z,208
2017-06-30T05:39:19.966Z,328
2017-06-30T05:40:28.915Z,268
2017-06-30T05:41:37.869Z,204
2017-06-30T05:42:46.814Z,264
2017-06-30T05:43:56.009Z,228
2017-06-30T05:45:04.953Z,224
2017-06-30T05:46:13.896Z,264
2017-06-30T05:47:22.840Z,280
2017-06-30T05:48:31.802Z,220
2017-06-30T05:49:41.049Z,200
2017-06-30T05:50:49.990Z,264
2017-06-30T05:51:58.975Z,232
2017-06-30T05:53:07.929Z,256
2017-06-30T05:54:16.867Z,332
2017-06-30T05:55:26.063Z,492
2017-06-30T05:56:35.013Z,484
2017-06-30T05:57:43.951Z,448
2017-06-30T05:58:52.954Z,356
2017-06-30T06:00:01.889Z,512
2017-06-30T06:01:11.409Z,448
2017-06-30T06:02:20.551Z,428
2017-06-30T06:03:29.493Z,228
2017-06-30T06:04:38.557Z,196
2017-06-30T06:05:47.724Z,264
2017-06-30T06:06:57.040Z,308
2017-06-30T06:08:06.199Z,404
2017-06-30T06:09:15.324Z,260
2017-06-30T06:10:24.521Z,364
2017-06-30T06:11:33.530Z,480
2017-06-30T06:12:42.839Z,300
2017-06-30T06:13:51.980Z,488
2017-06-30T06:15:00.975Z,436
2017-06-30T06:16:10.035Z,696
2017-06-30T06:17:19.137Z,660
2017-06-30T06:18:28.615Z,624
2017-06-30T06:19:37.728Z,956
2017-06-30T06:20:46.711Z,804
2017-06-30T06:21:55.785Z,796
2017-06-30T06:23:04.755Z,776
2017-06-30T06:24:14.326Z,680
2017-06-30T06:25:23.651Z,736
2017-06-30T06:26:32.722Z,724
2017-06-30T06:27:41.679Z,604
2017-06-30T06:28:50.713Z,512
2017-06-30T06:29:59.989Z,780
2017-06-30T06:31:08.946Z,800
2017-06-30T06:32:17.941Z,1008
2017-06-30T06:33:26.924Z,896
2017-06-30T06:34:35.915Z,792
2017-06-30T06:35:45.168Z,840
2017-06-30T06:36:54.121Z,792
2017-06-30T06:38:03.080Z,844
2017-06-30T06:39:12.041Z,932
2017-06-30T06:40:21.233Z,1236
2017-06-30T06:41:30.499Z,876
2017-06-30T06:42:39.459Z,892
2017-06-30T06:43:48.414Z,752
2017-06-30T06:44:57.678Z,776
2017-06-30T06:46:06.631Z,736
2017-06-30T06:47:16.271Z,692
2017-06-30T06:48:25.222Z,740
2017-06-30T06:49:34.234Z,668
2017-06-30T06:50:43.224Z,684
2017-06-30T06:51:52.229Z,636
2017-06-30T06:53:01.541Z,520
2017-06-30T06:54:10.633Z,616
2017-06-30T06:55:19.577Z,840
2017-06-30T06:56:28.604Z,896
2017-06-30T06:57:37.549Z,848
2017-06-30T06:58:46.798Z,1024
2017-06-30T06:59:55.737Z,996
2017-06-30T07:01:04.695Z,936
2017-06-30T07:02:13.666Z,996
2017-06-30T07:03:22.611Z,992
2017-06-30T07:04:31.852Z,1044
2017-06-30T07:05:40.789Z,1024
2017-06-30T07:06:50.316Z,992
2017-06-30T07:07:59.874Z,1052
2017-06-30T07:09:08.819Z,1384
2017-06-30T07:10:18.222Z,1428
2017-06-30T07:11:27.337Z,1148
2017-06-30T07:12:36.285Z,892
2017-06-30T07:13:45.284Z,916
2017-06-30T07:14:54.291Z,1192
2017-06-30T07:16:03.493Z,1012
2017-06-30T07:17:12.525Z,1212
2017-06-30T07:18:21.537Z,1188
2017-06-30T07:19:30.478Z,1292
2017-06-30T07:20:39.449Z,1208
2017-06-30T07:21:48.906Z,1316
2017-06-30T07:22:57.959Z,1204
2017-06-30T07:24:07.037Z,1128
2017-06-30T07:25:16.016Z,1300
2017-06-30T07:26:25.061Z,1508
2017-06-30T07:27:34.726Z,1104
2017-06-30T07:28:43.774Z,1300
2017-06-30T07:29:52.725Z,1388
2017-06-30T07:31:01.709Z,1300
2017-06-30T07:32:10.739Z,1312
2017-06-30T07:33:20.017Z,1060
2017-06-30T07:34:29.011Z,1156
2017-06-30T07:35:37.954Z,1352
2017-06-30T07:36:46.902Z,1436
2017-06-30T07:37:56.105Z,1336
2017-06-30T07:39:05.363Z,1388
2017-06-30T07:40:14.306Z,1516
2017-06-30T07:41:23.385Z,1628
2017-06-30T07:42:32.420Z,1776
2017-06-30T07:43:41.367Z,1520
2017-06-30T07:44:50.683Z,1420
2017-06-30T07:45:59.633Z,1624
2017-06-30T07:47:08.586Z,1204
2017-06-30T07:48:17.575Z,1316
2017-06-30T07:49:26.685Z,1332
2017-06-30T07:50:35.996Z,1348
2017-06-30T07:51:45.156Z,1360
2017-06-30T07:52:54.185Z,1860
2017-06-30T07:54:03.207Z,1664
2017-06-30T07:55:12.157Z,1576
2017-06-30T07:56:21.402Z,1632
2017-06-30T07:57:30.382Z,1692
2017-06-30T07:58:39.463Z,1580
2017-06-30T07:59:48.491Z,2100
2017-06-30T08:00:57.667Z,1976
2017-06-30T08:02:06.945Z,2056
2017-06-30T08:03:15.919Z,1424
2017-06-30T08:04:25.024Z,1996
2017-06-30T08:05:33.968Z,2080
2017-06-30T08:06:42.991Z,2124
2017-06-30T08:07:52.244Z,1492
2017-06-30T08:09:01.239Z,2220
2017-06-30T08:10:10.217Z,1844
2017-06-30T08:11:19.254Z,2076
2017-06-30T08:12:28.308Z,2296
2017-06-30T08:13:37.601Z,1436
2017-06-30T08:14:46.626Z,1196
2017-06-30T08:15:55.658Z,1560
2017-06-30T08:17:04.681Z,1492
2017-06-30T08:18:13.628Z,1504
2017-06-30T08:19:23.050Z,1336
2017-06-30T08:20:32.055Z,1280
2017-06-30T08:21:41.050Z,1048
2017-06-30T08:22:50.149Z,1520
2017-06-30T08:23:59.134Z,1176
2017-06-30T08:25:08.433Z,1828
2017-06-30T08:26:17.391Z,1936
2017-06-30T08:27:28.380Z,1828
2017-06-30T08:28:40.873Z,1040
2017-06-30T08:29:50.343Z,1532
2017-06-30T08:30:59.936Z,1656
2017-06-30T08:32:09.200Z,1996
2017-06-30T08:33:18.416Z,2252
2017-06-30T08:34:27.578Z,1684
2017-06-30T08:35:37.256Z,1824
2017-06-30T08:36:46.671Z,1496
2017-06-30T08:37:56.259Z,1400
2017-06-30T08:39:05.227Z,1588
2017-06-30T08:40:14.192Z,1792
2017-06-30T08:41:23.164Z,1716
2017-06-30T08:42:32.447Z,1280
2017-06-30T08:43:42.079Z,1204
2017-06-30T08:44:51.057Z,1224
2017-06-30T08:46:00.186Z,1084
2017-06-30T08:47:09.212Z,876
2017-06-30T08:48:18.812Z,1556
2017-06-30T08:49:27.790Z,784
2017-06-30T08:50:36.843Z,1148
2017-06-30T08:51:45.853Z,864
2017-06-30T08:52:54.821Z,1176
2017-06-30T08:54:04.051Z,1040
2017-06-30T08:55:13.016Z,796
2017-06-30T08:56:21.988Z,832
2017-06-30T08:57:30.967Z,780
2017-06-30T08:58:39.939Z,1068
2017-06-30T08:59:49.162Z,932
2017-06-30T09:00:58.134Z,780
2017-06-30T09:02:07.118Z,932
2017-06-30T09:03:16.295Z,824
2017-06-30T09:04:25.647Z,1592
2017-06-30T09:05:35.047Z,1820
2017-06-30T09:06:44.034Z,1028
2017-06-30T09:07:53.012Z,1288
2017-06-30T09:09:02.297Z,2040
2017-06-30T09:10:11.256Z,1348
2017-06-30T09:11:20.464Z,1856
2017-06-30T09:12:29.496Z,2172
2017-06-30T09:13:38.532Z,2460
2017-06-30T09:14:47.484Z,2668
2017-06-30T09:15:56.516Z,1908
2017-06-30T09:17:05.713Z,2312
2017-06-30T09:18:14.662Z,2140
2017-06-30T09:19:25.680Z,904
2017-06-30T09:20:34.981Z,952
2017-06-30T09:21:43.923Z,1076
2017-06-30T09:22:53.166Z,1300
2017-06-30T09:24:02.110Z,1260
2017-06-30T09:25:11.093Z,1124
2017-06-30T09:26:20.049Z,1488
2017-06-30T09:27:28.997Z,1532
2017-06-30T09:28:38.204Z,1944
2017-06-30T09:29:47.469Z,1640
2017-06-30T09:30:58.677Z,1560
2017-06-30T09:32:11.186Z,1748
2017-06-30T09:33:23.646Z,1452
2017-06-30T09:34:36.820Z,1292
2017-06-30T09:35:49.117Z,1032
2017-06-30T09:37:02.118Z,1484
2017-06-30T09:38:12.363Z,1308
2017-06-30T09:39:21.760Z,1804
2017-06-30T09:40:30.959Z,1140
2017-06-30T09:41:40.647Z,888
2017-06-30T09:42:50.197Z,1216
2017-06-30T09:44:00.328Z,1372
2017-06-30T09:45:10.017Z,1084
2017-06-30T09:46:20.008Z,1680
2017-06-30T09:47:30.043Z,1672
2017-06-30T09:48:40.348Z,2232
2017-06-30T09:49:49.769Z,1264
2017-06-30T09:50:59.568Z,1280
2017-06-30T09:52:09.472Z,1644
2017-06-30T09:53:18.781Z,920
2017-06-30T09:54:28.093Z,1636
2017-06-30T09:55:37.455Z,1632
2017-06-30T09:56:47.185Z,1604
2017-06-30T09:57:56.899Z,1048
2017-06-30T09:59:06.244Z,1276
2017-06-30T10:00:15.685Z,880
2017-06-30T10:01:25.265Z,836
2017-06-30T10:02:34.639Z,600
2017-06-30T10:03:44.368Z,1216
2017-06-30T10:04:54.362Z,1420
2017-06-30T10:06:03.902Z,1756
2017-06-30T10:07:13.384Z,2672
2017-06-30T10:08:23.867Z,1716
2017-06-30T10:09:33.091Z,1860
2017-06-30T10:10:42.791Z,2012
2017-06-30T10:11:52.287Z,1888
2017-06-30T10:13:02.264Z,2140
2017-06-30T10:14:12.064Z,1884
2017-06-30T10:15:22.401Z,1024
2017-06-30T10:16:32.113Z,1440
2017-06-30T10:17:42.356Z,988
2017-06-30T10:18:51.904Z,1164
2017-06-30T10:20:01.665Z,1212
2017-06-30T10:21:11.843Z,1040
2017-06-30T10:22:22.200Z,1420
2017-06-30T10:23:32.451Z,1356
2017-06-30T10:24:42.268Z,1016
2017-06-30T10:25:52.197Z,1108
2017-06-30T10:27:01.865Z,1532
2017-06-30T10:28:11.352Z,772
2017-06-30T10:29:21.026Z,580
2017-06-30T10:30:30.859Z,1432
2017-06-30T10:31:40.571Z,1756
2017-06-30T10:32:50.109Z,1868
2017-06-30T10:33:59.540Z,1988
2017-06-30T10:35:09.192Z,1572
2017-06-30T10:36:18.389Z,1304
2017-06-30T10:37:28.036Z,840
2017-06-30T10:38:37.428Z,1040
2017-06-30T10:39:47.061Z,1272
2017-06-30T10:40:56.495Z,1008
2017-06-30T10:42:05.926Z,1776
2017-06-30T10:43:15.704Z,1724
2017-06-30T10:44:25.375Z,1420
2017-06-30T10:45:34.592Z,1176
2017-06-30T10:46:43.884Z,1080
2017-06-30T10:47:53.523Z,1304
2017-06-30T10:49:03.088Z,868
2017-06-30T10:50:12.407Z,1236
2017-06-30T10:51:22.174Z,928
2017-06-30T10:52:32.092Z,1240
2017-06-30T10:53:41.113Z,1404
2017-06-30T10:54:50.356Z,1204
2017-06-30T10:55:59.302Z,1456
2017-06-30T10:57:08.580Z,2036
2017-06-30T10:58:17.532Z,1848
2017-06-30T10:59:26.484Z,2292
2017-06-30T11:00:35.892Z,1936
2017-06-30T11:01:44.838Z,2576
2017-06-30T11:02:54.146Z,2344
2017-06-30T11:04:03.147Z,2344
2017-06-30T11:05:12.094Z,2480
2017-06-30T11:06:21.435Z,1836
2017-06-30T11:07:30.425Z,2312
2017-06-30T11:08:39.419Z,2552
2017-06-30T11:09:48.457Z,2456
2017-06-30T11:10:57.436Z,1800
2017-06-30T11:12:06.633Z,2212
2017-06-30T11:13:15.705Z,2284
2017-06-30T11:14:24.703Z,2588
2017-06-30T11:15:33.728Z,2852
2017-06-30T11:16:42.675Z,2564
2017-06-30T11:17:51.881Z,2968
2017-06-30T11:19:00.910Z,1644
2017-06-30T11:20:09.866Z,1952
2017-06-30T11:21:18.863Z,2152
2017-06-30T11:22:27.803Z,2272
2017-06-30T11:23:37.395Z,2496
2017-06-30T11:24:46.344Z,2172
2017-06-30T11:25:55.563Z,2284
2017-06-30T11:27:04.637Z,2968
2017-06-30T11:28:13.952Z,3132
2017-06-30T11:29:23.431Z,2748
2017-06-30T11:30:32.726Z,3028
2017-06-30T11:31:41.810Z,2360
2017-06-30T11:32:50.803Z,2856
2017-06-30T11:33:59.754Z,2988
2017-06-30T11:35:09.168Z,2732
2017-06-30T11:36:18.264Z,3196
2017-06-30T11:37:27.469Z,2928
2017-06-30T11:38:36.421Z,2560
2017-06-30T11:39:45.377Z,2392
2017-06-30T11:40:54.719Z,2096
2017-06-30T11:42:03.746Z,2680
2017-06-30T11:43:12.783Z,2656
2017-06-30T11:44:21.743Z,2332
2017-06-30T11:45:30.775Z,2636
2017-06-30T11:46:40.045Z,2752
2017-06-30T11:47:48.994Z,2604
2017-06-30T11:48:58.068Z,2444
2017-06-30T11:50:07.062Z,2216
2017-06-30T11:51:16.009Z,1904
2017-06-30T11:52:25.484Z,1972
2017-06-30T11:53:34.862Z,2492
2017-06-30T11:54:43.814Z,2356
2017-06-30T11:55:53.599Z,2500
2017-06-30T11:57:03.389Z,2552
2017-06-30T11:58:12.721Z,2228
2017-06-30T11:59:21.949Z,2624
2017-06-30T12:00:31.109Z,2016
2017-06-30T12:01:40.425Z,2108
2017-06-30T12:02:49.646Z,2408
2017-06-30T12:03:59.071Z,2048
2017-06-30T12:05:08.035Z,2080
2017-06-30T12:06:17.141Z,2080
2017-06-30T12:07:26.099Z,1772
2017-06-30T12:08:35.043Z,1876
2017-06-30T12:09:44.291Z,1892
2017-06-30T12:10:53.373Z,1488
2017-06-30T12:12:02.404Z,1976
2017-06-30T12:13:11.640Z,1224
2017-06-30T12:14:20.669Z,1544
2017-06-30T12:15:29.869Z,1276
2017-06-30T12:16:38.819Z,1252
2017-06-30T12:17:47.773Z,2004
2017-06-30T12:18:56.762Z,1400
2017-06-30T12:20:05.707Z,1132
2017-06-30T12:21:15.046Z,2128
2017-06-30T12:22:23.997Z,2032
2017-06-30T12:23:32.963Z,2256
2017-06-30T12:24:42.014Z,1752
2017-06-30T12:25:51.018Z,1476
2017-06-30T12:27:00.322Z,1236
2017-06-30T12:28:09.281Z,2256
2017-06-30T12:29:18.516Z,1936
2017-06-30T12:30:27.473Z,2168
2017-06-30T12:31:36.471Z,1652
2017-06-30T12:32:45.902Z,1952
2017-06-30T12:33:54.857Z,2124
2017-06-30T12:35:03.809Z,2468
2017-06-30T12:36:12.761Z,2792
2017-06-30T12:37:21.818Z,2756
2017-06-30T12:38:31.381Z,2368
2017-06-30T12:39:40.526Z,2608
2017-06-30T12:40:49.557Z,1728
2017-06-30T12:41:58.656Z,2456
2017-06-30T12:43:07.776Z,2276
2017-06-30T12:44:16.997Z,1676
2017-06-30T12:45:26.945Z,1420
2017-06-30T12:46:35.896Z,936
2017-06-30T12:47:45.084Z,732
2017-06-30T12:48:54.262Z,1504
2017-06-30T12:50:03.636Z,2200
2017-06-30T12:51:12.741Z,1660
2017-06-30T12:52:21.822Z,2944
2017-06-30T12:53:30.842Z,3168
2017-06-30T12:54:39.828Z,3004
2017-06-30T12:55:49.029Z,2712
2017-06-30T12:56:58.102Z,3024
2017-06-30T12:58:07.176Z,2796
2017-06-30T12:59:16.128Z,2788
2017-06-30T13:00:26.075Z,2552
2017-06-30T13:01:35.313Z,2584
2017-06-30T13:02:44.845Z,2440
2017-06-30T13:03:53.786Z,2284
2017-06-30T13:05:02.740Z,1628
2017-06-30T13:06:11.688Z,1872
2017-06-30T13:07:20.891Z,2128
2017-06-30T13:08:29.834Z,1684
2017-06-30T13:09:38.778Z,2124
2017-06-30T13:10:47.730Z,2032
2017-06-30T13:11:56.680Z,2064
2017-06-30T13:13:05.926Z,1276
2017-06-30T13:14:14.882Z,1276
2017-06-30T13:15:23.921Z,1724
2017-06-30T13:16:32.890Z,1628
2017-06-30T13:17:41.873Z,1872
2017-06-30T13:18:51.109Z,1988
2017-06-30T13:20:00.088Z,2348
2017-06-30T13:21:09.080Z,1492
2017-06-30T13:22:18.054Z,1940
2017-06-30T13:23:27.036Z,2204
2017-06-30T13:24:36.311Z,2168
2017-06-30T13:25:45.276Z,2096
2017-06-30T13:26:54.242Z,2192
2017-06-30T13:28:03.222Z,1500
2017-06-30T13:29:12.191Z,1384
2017-06-30T13:30:21.405Z,1640
2017-06-30T13:31:30.367Z,2312
2017-06-30T13:32:39.339Z,2488
2017-06-30T13:33:48.322Z,2580
2017-06-30T13:34:57.294Z,2308
2017-06-30T13:36:06.515Z,2500
2017-06-30T13:37:15.578Z,2040
2017-06-30T13:38:24.545Z,1600
2017-06-30T13:39:33.513Z,2228
2017-06-30T13:40:42.478Z,2128
2017-06-30T13:41:51.843Z,2076
2017-06-30T13:43:00.817Z,2384
2017-06-30T13:44:09.783Z,2116
2017-06-30T13:45:18.763Z,1840
2017-06-30T13:46:27.736Z,2112
2017-06-30T13:47:37.007Z,2332
2017-06-30T13:48:45.978Z,2360
2017-06-30T13:49:54.958Z,2356
2017-06-30T13:51:03.938Z,2300
2017-06-30T13:52:12.995Z,2124
2017-06-30T13:53:22.218Z,2124
2017-06-30T13:54:31.186Z,1824
2017-06-30T13:55:40.241Z,1932
2017-06-30T13:56:49.216Z,2228
2017-06-30T13:57:58.188Z,1896
2017-06-30T13:59:07.472Z,1668
2017-06-30T14:00:16.543Z,1320
2017-06-30T14:01:25.516Z,1392
2017-06-30T14:02:34.490Z,1456
2017-06-30T14:03:43.452Z,1460
2017-06-30T14:04:52.816Z,1296
2017-06-30T14:06:01.802Z,912
2017-06-30T14:07:10.775Z,672
2017-06-30T14:08:19.741Z,740
2017-06-30T14:09:28.720Z,772
2017-06-30T14:10:38.034Z,720
2017-06-30T14:11:47.004Z,816
2017-06-30T14:12:56.051Z,872
2017-06-30T14:14:05.114Z,972
2017-06-30T14:15:14.084Z,1076
2017-06-30T14:16:23.360Z,1116
2017-06-30T14:17:32.322Z,1164
2017-06-30T14:18:41.287Z,1132
2017-06-30T14:19:50.269Z,1056
2017-06-30T14:20:59.249Z,1108
2017-06-30T14:22:08.522Z,1184
2017-06-30T14:23:17.494Z,1328
2017-06-30T14:24:26.467Z,1372
2017-06-30T14:25:35.435Z,1236
2017-06-30T14:26:44.728Z,1308
2017-06-30T14:27:53.963Z,1088
2017-06-30T14:29:02.945Z,1032
2017-06-30T14:30:11.919Z,1012
2017-06-30T14:31:20.891Z,1040
2017-06-30T14:32:29.858Z,1240
2017-06-30T14:33:39.128Z,1320
2017-06-30T14:34:48.098Z,1288
2017-06-30T14:35:57.073Z,1340
2017-06-30T14:37:06.040Z,1252
2017-06-30T14:38:15.016Z,1176
2017-06-30T14:39:24.302Z,1196
2017-06-30T14:40:33.459Z,1152
2017-06-30T14:41:42.428Z,1128
2017-06-30T14:42:51.468Z,1112
2017-06-30T14:44:00.426Z,1212
2017-06-30T14:45:09.678Z,1260
2017-06-30T14:46:18.633Z,1444
2017-06-30T14:47:27.628Z,1556
2017-06-30T14:48:36.917Z,1848
2017-06-30T14:49:45.873Z,1908
2017-06-30T14:50:55.079Z,1924
2017-06-30T14:52:04.357Z,1768
2017-06-30T14:53:13.309Z,1672
2017-06-30T14:54:22.256Z,1632
2017-06-30T14:55:31.205Z,1708
2017-06-30T14:56:40.459Z,1716
2017-06-30T14:57:49.409Z,1592
2017-06-30T14:58:58.378Z,1516
2017-06-30T15:00:07.353Z,1464
2017-06-30T15:01:16.304Z,1428
2017-06-30T15:02:25.519Z,1500
2017-06-30T15:03:34.473Z,1484
2017-06-30T15:04:43.422Z,1396
2017-06-30T15:05:52.420Z,1444
2017-06-30T15:07:01.366Z,1532
2017-06-30T15:08:10.563Z,1552
2017-06-30T15:09:19.511Z,1672
2017-06-30T15:10:28.453Z,1584
2017-06-30T15:11:37.402Z,1360
2017-06-30T15:12:46.357Z,1176
2017-06-30T15:13:55.611Z,928
2017-06-30T15:15:04.904Z,956
2017-06-30T15:16:13.873Z,1016
2017-06-30T15:17:22.825Z,780
2017-06-30T15:18:31.790Z,508
2017-06-30T15:19:41.128Z,760
2017-06-30T15:20:50.122Z,928
2017-06-30T15:21:59.110Z,668
2017-06-30T15:23:08.082Z,636
2017-06-30T15:24:17.092Z,580
2017-06-30T15:25:26.366Z,344
2017-06-30T15:26:35.399Z,416
2017-06-30T15:27:44.442Z,532
2017-06-30T15:28:53.481Z,716
2017-06-30T15:30:02.438Z,452
2017-06-30T15:31:11.639Z,448
2017-06-30T15:32:20.594Z,456
2017-06-30T15:33:29.544Z,756
2017-06-30T15:34:38.489Z,476
2017-06-30T15:35:47.636Z,416
2017-06-30T15:36:56.967Z,500
2017-06-30T15:38:06.111Z,488
2017-06-30T15:39:15.055Z,264
2017-06-30T15:40:24.228Z,232
2017-06-30T15:41:33.266Z,256
2017-06-30T15:42:42.572Z,380
2017-06-30T15:43:51.583Z,412
2017-06-30T15:45:00.561Z,460
2017-06-30T15:46:09.506Z,648
2017-06-30T15:47:18.578Z,700
2017-06-30T15:48:27.781Z,1152
2017-06-30T15:49:36.783Z,1408
2017-06-30T15:50:45.980Z,1516